createdAt,value
2022-09-29T00:02:25.548Z,98431.84
2022-09-29T00:05:30.575Z,98425.75
2022-09-29T00:08:33.379Z,98441.69
2022-09-29T00:11:36.107Z,98439.69
2022-09-29T00:14:39.092Z,98438.19
2022-09-29T00:17:49.770Z,98439.38
2022-09-29T00:21:07.594Z,98447.66
2022-09-29T00:24:10.328Z,98454.69
2022-09-29T00:27:15.335Z,98456.53
2022-09-29T00:30:18.146Z,98460.69
2022-09-29T00:33:20.849Z,98466.53
2022-09-29T00:36:25.524Z,98461.19
2022-09-29T00:39:28.261Z,98472.84
2022-09-29T00:42:32.716Z,98460.84
2022-09-29T00:45:35.566Z,98460.69
2022-09-29T00:48:38.307Z,98472.63
2022-09-29T00:51:44.222Z,98468.47
2022-09-29T00:54:48.921Z,98472.13
2022-09-29T00:57:56.082Z,98477.78
2022-09-29T01:00:59.298Z,98475.31
2022-09-29T01:04:06.053Z,98475.78
2022-09-29T01:07:11.183Z,98471.78
2022-09-29T01:10:15.260Z,98477.44
2022-09-29T01:13:21.659Z,98487.72
2022-09-29T01:16:24.442Z,98496.47
2022-09-29T01:19:31.945Z,98496.09
2022-09-29T01:22:51.726Z,98498.69
2022-09-29T01:26:18.359Z,98493.75
2022-09-29T01:29:44.706Z,98487.75
2022-09-29T01:32:59.460Z,98492.06
2022-09-29T01:36:05.097Z,98502.19
2022-09-29T01:39:12.240Z,98503.72
2022-09-29T01:42:19.245Z,98499.59
2022-09-29T01:45:26.285Z,98506.59
2022-09-29T01:48:32.691Z,98517.44
2022-09-29T01:51:40.449Z,98519.75
2022-09-29T01:54:46.974Z,98516.22
2022-09-29T01:57:51.836Z,98518.22
2022-09-29T02:00:58.354Z,98523.06
2022-09-29T02:04:03.483Z,98523.69
2022-09-29T02:07:09.842Z,98531.56
2022-09-29T02:10:15.041Z,98537.38
2022-09-29T02:13:19.695Z,98533.38
2022-09-29T02:16:25.210Z,98541.06
2022-09-29T02:19:33.604Z,98545.25
2022-09-29T02:22:36.448Z,98552.03
2022-09-29T02:25:40.184Z,98543.59
2022-09-29T02:28:43.212Z,98550.25
2022-09-29T02:31:46.453Z,98547.91
2022-09-29T02:34:51.796Z,98557.75
2022-09-29T02:38:01.616Z,98559.75
2022-09-29T02:41:08.306Z,98556.09
2022-09-29T02:44:26.893Z,98559.56
2022-09-29T02:47:38.919Z,98554.41
2022-09-29T02:50:50.422Z,98552.22
2022-09-29T02:53:58.825Z,98558.91
2022-09-29T02:57:09.840Z,98567.75
2022-09-29T03:00:14.461Z,98568.91
2022-09-29T03:03:17.274Z,98577.06
2022-09-29T03:06:22.384Z,98577.06
2022-09-29T03:09:25.116Z,98580.91
2022-09-29T03:12:27.858Z,98581.75
2022-09-29T03:15:30.553Z,98579.75
2022-09-29T03:18:33.185Z,98592.09
2022-09-29T03:21:37.311Z,98585.41
2022-09-29T03:24:40.027Z,98587.09
2022-09-29T03:27:42.857Z,98589.56
2022-09-29T03:30:46.258Z,98598.41
2022-09-29T03:33:49.008Z,98593.91
2022-09-29T03:36:53.130Z,98597.09
2022-09-29T03:39:55.787Z,98600.75
2022-09-29T03:42:58.629Z,98600.06
2022-09-29T03:46:01.584Z,98607.25
2022-09-29T03:49:09.543Z,98609.56
2022-09-29T03:52:13.721Z,98615.25
2022-09-29T03:55:16.493Z,98613.91
2022-09-29T03:58:19.685Z,98626.22
2022-09-29T04:01:22.429Z,98632.44
2022-09-29T04:04:25.177Z,98644.91
2022-09-29T04:07:29.191Z,98638.78
2022-09-29T04:10:31.888Z,98640.75
2022-09-29T04:13:34.548Z,98653.25
2022-09-29T04:16:38.338Z,98657.75
2022-09-29T04:19:41.006Z,98666.91
2022-09-29T04:22:45.106Z,98665.59
2022-09-29T04:25:47.892Z,98673.09
2022-09-29T04:28:50.743Z,98660.44
2022-09-29T04:31:54.997Z,98663.41
2022-09-29T04:34:59.083Z,98660.91
2022-09-29T04:38:03.109Z,98666.75
2022-09-29T04:41:06.042Z,98672.09
2022-09-29T04:44:08.889Z,98665.94
2022-09-29T04:47:11.593Z,98679.09
2022-09-29T04:50:14.231Z,98674.94
2022-09-29T04:53:18.371Z,98668.91
2022-09-29T04:56:21.149Z,98660.25
2022-09-29T04:59:23.863Z,98669.91
2022-09-29T05:02:26.546Z,98675.06
2022-09-29T05:05:29.413Z,98674.94
2022-09-29T05:08:33.611Z,98679.09
2022-09-29T05:11:36.661Z,98681.09
2022-09-29T05:14:39.445Z,98687.44
2022-09-29T05:17:42.199Z,98694.94
2022-09-29T05:20:54.857Z,98693.28
2022-09-29T05:24:09.094Z,98704.44
2022-09-29T05:27:14.196Z,98706.78
2022-09-29T05:30:17.909Z,98704.59
2022-09-29T05:33:23.526Z,98713.28
2022-09-29T05:36:26.304Z,98724.47
2022-09-29T05:39:31.979Z,98731.97
2022-09-29T05:42:35.393Z,98739.97
2022-09-29T05:45:38.130Z,98738.28
2022-09-29T05:48:40.900Z,98744.31
2022-09-29T05:51:43.578Z,98754.47
2022-09-29T05:54:51.082Z,98757.81
2022-09-29T05:57:53.762Z,98760.47
2022-09-29T06:00:56.809Z,98766.13
2022-09-29T06:03:59.540Z,98774.31
2022-09-29T06:07:02.382Z,98762.13
2022-09-29T06:10:08.079Z,98762.13
2022-09-29T06:13:11.623Z,98773.97
2022-09-29T06:16:14.705Z,98786.31
2022-09-29T06:19:17.570Z,98791.34
2022-09-29T06:22:20.857Z,98788.47
2022-09-29T06:25:24.899Z,98790.13
2022-09-29T06:28:27.550Z,98776.47
2022-09-29T06:31:31.356Z,98787.81
2022-09-29T06:34:34.057Z,98797.63
2022-09-29T06:37:35.796Z,98800.13
2022-09-29T06:40:40.203Z,98812.88
2022-09-29T06:43:42.983Z,98809.50
2022-09-29T06:46:45.717Z,98823.03
2022-09-29T06:49:52.955Z,98815.84
2022-09-29T06:53:04.705Z,98827.50
2022-09-29T06:56:10.284Z,98820.44
2022-09-29T06:59:12.998Z,98833.81
2022-09-29T07:02:16.851Z,98834.19
2022-09-29T07:05:20.017Z,98837.03
2022-09-29T07:08:22.704Z,98835.69
2022-09-29T07:11:27.186Z,98829.88
2022-09-29T07:14:29.868Z,98841.03
2022-09-29T07:17:32.514Z,98834.72
2022-09-29T07:20:36.775Z,98836.56
2022-09-29T07:23:39.808Z,98830.38
2022-09-29T07:26:44.336Z,98830.66
2022-09-29T07:29:58.513Z,98833.47
2022-09-29T07:33:05.434Z,98820.75
2022-09-29T07:36:08.443Z,98823.31
2022-09-29T07:39:11.336Z,98832.81
2022-09-29T07:42:15.372Z,98844.34
2022-09-29T07:45:18.240Z,98845.81
2022-09-29T07:48:21.368Z,98839.28
2022-09-29T07:51:24.093Z,98836.31
2022-09-29T07:54:29.505Z,98843.84
2022-09-29T07:57:33.818Z,98838.00
2022-09-29T08:00:36.632Z,98836.75
2022-09-29T08:03:39.768Z,98853.50
2022-09-29T08:06:43.942Z,98844.13
2022-09-29T08:09:46.837Z,98856.16
2022-09-29T08:12:53.656Z,98856.50
2022-09-29T08:16:00.349Z,98854.25
2022-09-29T08:19:05.060Z,98854.00
2022-09-29T08:22:10.413Z,98863.44
2022-09-29T08:25:13.424Z,98868.97
2022-09-29T08:28:29.716Z,98875.78
2022-09-29T08:31:34.816Z,98885.97
2022-09-29T08:34:38.300Z,98899.06
2022-09-29T08:37:41.018Z,98896.25
2022-09-29T08:40:43.697Z,98899.13
2022-09-29T08:43:49.958Z,98899.13
2022-09-29T08:47:06.973Z,98897.28
2022-09-29T08:50:13.319Z,98881.94
2022-09-29T08:53:28.216Z,98896.97
2022-09-29T08:56:31.820Z,98906.66
2022-09-29T08:59:35.852Z,98906.63
2022-09-29T09:02:53.203Z,98909.31
2022-09-29T09:06:19.960Z,98909.50
2022-09-29T09:09:41.829Z,98911.19
2022-09-29T09:12:53.004Z,98908.81
2022-09-29T09:16:03.447Z,98915.34
2022-09-29T09:19:30.139Z,98918.50
2022-09-29T09:25:48.975Z,98937.38
2022-09-29T09:28:54.545Z,98941.88
2022-09-29T09:32:02.040Z,98937.03
2022-09-29T09:35:21.613Z,98941.22
2022-09-29T09:38:28.175Z,98939.72
2022-09-29T09:41:35.785Z,98939.38
2022-09-29T09:44:41.030Z,98943.03
2022-09-29T09:47:49.773Z,98934.47
2022-09-29T09:50:53.176Z,98951.75
2022-09-29T09:53:57.818Z,98954.41
2022-09-29T09:57:08.900Z,98962.41
2022-09-29T10:00:13.159Z,98964.75
2022-09-29T10:03:17.580Z,98962.41
2022-09-29T10:06:20.637Z,98964.75
2022-09-29T10:09:23.670Z,98968.94
2022-09-29T10:12:26.692Z,98965.75
2022-09-29T10:15:31.266Z,98968.09
2022-09-29T10:18:38.599Z,98972.97
2022-09-29T10:21:41.979Z,98969.09
2022-09-29T10:24:44.761Z,98968.59
2022-09-29T10:27:49.531Z,98968.25
2022-09-29T10:30:53.947Z,98969.09
2022-09-29T10:34:02.164Z,98978.81
2022-09-29T10:37:06.138Z,98972.78
2022-09-29T10:40:18.061Z,98970.41
2022-09-29T10:43:25.008Z,98965.69
2022-09-29T10:46:41.053Z,98972.78
2022-09-29T10:49:45.126Z,98980.09
2022-09-29T10:52:51.636Z,98982.09
2022-09-29T10:55:56.071Z,98988.78
2022-09-29T10:59:04.459Z,98989.59
2022-09-29T11:02:18.030Z,98992.47
2022-09-29T11:05:24.645Z,98988.47
2022-09-29T11:08:27.913Z,98985.59
2022-09-29T11:11:31.707Z,98981.56
2022-09-29T11:14:41.588Z,98985.78
2022-09-29T11:17:50.428Z,98982.06
2022-09-29T11:21:02.214Z,98979.53
2022-09-29T11:24:07.114Z,98985.22
2022-09-29T11:27:14.148Z,98980.38
2022-09-29T11:30:19.880Z,98974.47
2022-09-29T11:33:29.283Z,98978.13
2022-09-29T11:36:41.723Z,98983.63
2022-09-29T11:39:48.067Z,98987.84
2022-09-29T11:43:01.732Z,98989.69
2022-09-29T11:46:13.012Z,98999.41
2022-09-29T11:49:34.389Z,98991.66
2022-09-29T11:52:51.041Z,99002.25
2022-09-29T11:56:08.743Z,98989.13
2022-09-29T11:59:20.509Z,98990.00
2022-09-29T12:02:38.474Z,99000.41
2022-09-29T12:05:50.088Z,98999.19
2022-09-29T12:09:03.076Z,98998.31
2022-09-29T12:12:23.255Z,99001.31
2022-09-29T12:15:34.216Z,98994.28
2022-09-29T12:18:45.652Z,98997.28
2022-09-29T12:21:50.447Z,98996.78
2022-09-29T12:24:55.916Z,98994.41
2022-09-29T12:28:01.752Z,98988.44
2022-09-29T12:31:09.756Z,98998.44
2022-09-29T12:34:15.542Z,98984.41
2022-09-29T12:37:20.562Z,98988.44
2022-09-29T12:40:43.051Z,98980.63
2022-09-29T12:43:50.108Z,98995.59
2022-09-29T12:46:55.358Z,98991.72
2022-09-29T12:50:03.534Z,98996.41
2022-09-29T12:53:11.256Z,98993.63
2022-09-29T12:56:21.964Z,98994.97
2022-09-29T12:59:30.029Z,99008.72
2022-09-29T13:02:41.495Z,98994.50
2022-09-29T13:06:01.973Z,99001.75
2022-09-29T13:09:17.968Z,99009.66
2022-09-29T13:12:41.825Z,99011.44
2022-09-29T13:15:51.156Z,99024.16
2022-09-29T13:19:20.093Z,99015.19
2022-09-29T13:22:42.298Z,99017.22
2022-09-29T13:25:48.484Z,99021.91
2022-09-29T13:28:53.175Z,99018.88
2022-09-29T13:31:58.356Z,99022.72
2022-09-29T13:35:02.771Z,99019.53
2022-09-29T13:38:06.400Z,99026.22
2022-09-29T13:41:16.620Z,99023.34
2022-09-29T13:44:27.407Z,99019.19
2022-09-29T13:47:34.836Z,99017.53
2022-09-29T13:50:49.270Z,99028.06
2022-09-29T13:54:14.875Z,99010.50
2022-09-29T13:57:27.090Z,99020.38
2022-09-29T14:00:32.856Z,99019.25
2022-09-29T14:03:37.485Z,99023.06
2022-09-29T14:06:47.356Z,99027.75
2022-09-29T14:09:50.357Z,99023.91
2022-09-29T14:12:57.622Z,99027.91
2022-09-29T14:16:10.663Z,99028.59
2022-09-29T14:19:26.451Z,99032.91
2022-09-29T14:22:50.819Z,99037.28
2022-09-29T14:25:57.802Z,99048.31
2022-09-29T14:29:04.051Z,99034.09
2022-09-29T14:32:07.420Z,99034.25
2022-09-29T14:35:21.430Z,99038.81
2022-09-29T14:38:27.181Z,99035.59
2022-09-29T14:41:34.285Z,99034.09
2022-09-29T14:44:52.578Z,99035.97
2022-09-29T14:48:15.807Z,99034.13
2022-09-29T14:51:41.136Z,99042.63
2022-09-29T14:54:46.963Z,99043.78
2022-09-29T14:58:00.824Z,99055.50
2022-09-29T15:01:12.838Z,99048.97
2022-09-29T15:04:17.387Z,99052.66
2022-09-29T15:07:23.647Z,99052.97
2022-09-29T15:10:27.363Z,99053.81
2022-09-29T15:13:32.060Z,99051.31
2022-09-29T15:16:42.584Z,99045.66
2022-09-29T15:19:58.490Z,99047.47
2022-09-29T15:23:11.010Z,99049.97
2022-09-29T15:26:14.648Z,99044.63
2022-09-29T15:29:19.606Z,99049.25
2022-09-29T15:32:26.451Z,99052.16
2022-09-29T15:35:31.465Z,99057.97
2022-09-29T15:38:38.295Z,99049.31
2022-09-29T15:41:44.943Z,99050.97
2022-09-29T15:44:49.196Z,99057.66
2022-09-29T15:48:00.297Z,99054.00
2022-09-29T15:51:04.417Z,99049.78
2022-09-29T15:54:10.494Z,99055.13
2022-09-29T15:57:46.247Z,99051.50
2022-09-29T16:00:49.058Z,99052.97
2022-09-29T16:03:54.073Z,99055.16
2022-09-29T16:06:56.814Z,99056.84
2022-09-29T16:10:03.861Z,99051.31
2022-09-29T16:13:10.951Z,99058.31
2022-09-29T16:16:14.939Z,99068.84
2022-09-29T16:19:22.842Z,99068.84
2022-09-29T16:22:27.810Z,99078.03
2022-09-29T16:25:35.075Z,99077.31
2022-09-29T16:28:40.843Z,99076.16
2022-09-29T16:31:51.112Z,99078.53
2022-09-29T16:34:54.936Z,99081.38
2022-09-29T16:37:57.741Z,99089.66
2022-09-29T16:41:04.648Z,99086.00
2022-09-29T16:44:13.227Z,99088.19
2022-09-29T16:47:17.850Z,99083.34
2022-09-29T16:50:22.061Z,99082.00
2022-09-29T16:53:30.619Z,99080.78
2022-09-29T16:56:36.143Z,99082.28
2022-09-29T16:59:38.956Z,99079.00
2022-09-29T17:02:43.219Z,99075.97
2022-09-29T17:05:48.702Z,99083.38
2022-09-29T17:08:52.509Z,99079.63
2022-09-29T17:11:59.887Z,99080.66
2022-09-29T17:15:05.012Z,99080.81
2022-09-29T17:18:12.443Z,99083.88
2022-09-29T17:21:15.196Z,99074.50
2022-09-29T17:24:18.141Z,99083.47
2022-09-29T17:27:41.301Z,99083.84
2022-09-29T17:30:48.159Z,99075.13
2022-09-29T17:33:53.620Z,99076.31
2022-09-29T17:36:57.648Z,99071.69
2022-09-29T17:40:00.576Z,99079.84
2022-09-29T17:43:05.736Z,99078.69
2022-09-29T17:46:12.097Z,99085.72
2022-09-29T17:49:18.466Z,99083.69
2022-09-29T17:52:23.145Z,99079.53
2022-09-29T17:55:33.065Z,99096.69
2022-09-29T17:58:39.076Z,99103.03
2022-09-29T18:01:45.997Z,99100.56
2022-09-29T18:04:50.574Z,99103.03
2022-09-29T18:07:54.111Z,99115.75
2022-09-29T18:11:00.953Z,99123.47
2022-09-29T18:14:05.170Z,99123.22
2022-09-29T18:17:09.265Z,99132.75
2022-09-29T18:20:17.231Z,99127.72
2022-09-29T18:23:21.946Z,99123.75
2022-09-29T18:26:28.888Z,99122.97
2022-09-29T18:29:33.848Z,99115.09
2022-09-29T18:32:39.360Z,99113.53
2022-09-29T18:35:43.589Z,99114.69
2022-09-29T18:38:48.335Z,99116.53
2022-09-29T18:41:51.068Z,99115.09
2022-09-29T18:44:55.281Z,99116.91
2022-09-29T18:48:05.291Z,99117.09
2022-09-29T18:51:08.405Z,99118.06
2022-09-29T18:54:13.455Z,99108.41
2022-09-29T18:57:17.770Z,99122.94
2022-09-29T19:00:26.525Z,99120.25
2022-09-29T19:03:30.151Z,99117.41
2022-09-29T19:06:33.116Z,99111.06
2022-09-29T19:09:37.146Z,99120.44
2022-09-29T19:12:39.937Z,99107.56
2022-09-29T19:15:46.282Z,99119.44
2022-09-29T19:18:50.767Z,99112.25
2022-09-29T19:22:04.455Z,99109.09
2022-09-29T19:25:08.404Z,99098.72
2022-09-29T19:28:13.736Z,99098.06
2022-09-29T19:31:22.589Z,99109.22
2022-09-29T19:34:26.921Z,99106.44
2022-09-29T19:37:30.079Z,99114.09
2022-09-29T19:40:42.920Z,99107.06
2022-09-29T19:43:46.729Z,99104.41
2022-09-29T19:46:50.997Z,99115.75
2022-09-29T19:50:14.493Z,99116.59
2022-09-29T19:53:23.393Z,99112.09
2022-09-29T19:56:26.345Z,99128.47
2022-09-29T19:59:31.267Z,99132.69
2022-09-29T20:02:39.703Z,99136.50
2022-09-29T20:05:47.447Z,99135.66
2022-09-29T20:08:50.377Z,99139.00
2022-09-29T20:11:53.481Z,99140.19
2022-09-29T20:14:59.879Z,99131.81
2022-09-29T20:18:06.950Z,99140.00
2022-09-29T20:21:10.901Z,99129.50
2022-09-29T20:24:17.402Z,99128.13
2022-09-29T20:27:20.285Z,99139.16
2022-09-29T20:30:23.128Z,99132.81
2022-09-29T20:33:27.589Z,99139.84
2022-09-29T20:36:30.833Z,99145.53
2022-09-29T20:39:33.591Z,99143.34
2022-09-29T20:42:38.615Z,99148.19
2022-09-29T20:45:41.630Z,99143.84
2022-09-29T20:48:45.712Z,99148.84
2022-09-29T20:51:48.595Z,99152.53
2022-09-29T20:54:51.389Z,99146.53
2022-09-29T20:57:57.989Z,99152.81
2022-09-29T21:01:10.814Z,99140.97
2022-09-29T21:04:15.475Z,99144.50
2022-09-29T21:07:36.625Z,99140.16
2022-09-29T21:10:39.415Z,99137.78
2022-09-29T21:13:44.441Z,99127.78
2022-09-29T21:16:48.689Z,99128.94
2022-09-29T21:19:52.779Z,99122.94
2022-09-29T21:22:56.383Z,99124.41
2022-09-29T21:25:59.904Z,99119.41
2022-09-29T21:29:05.143Z,99117.06
2022-09-29T21:32:07.907Z,99122.59
2022-09-29T21:35:12.145Z,99123.47
2022-09-29T21:38:14.874Z,99132.22
2022-09-29T21:41:20.669Z,99130.06
2022-09-29T21:44:24.662Z,99132.16
2022-09-29T21:47:47.632Z,99130.25
2022-09-29T21:50:51.717Z,99128.56
2022-09-29T21:53:55.136Z,99122.75
2022-09-29T21:56:57.792Z,99133.50
2022-09-29T22:00:00.476Z,99138.91
2022-09-29T22:03:03.532Z,99152.88
2022-09-29T22:06:11.612Z,99141.97
2022-09-29T22:09:15.577Z,99145.63
2022-09-29T22:12:18.304Z,99150.78
2022-09-29T22:18:42.145Z,99127.13
2022-09-29T22:21:46.598Z,99115.66
2022-09-29T22:24:49.353Z,99112.22
2022-09-29T22:27:52.161Z,99109.69
2022-09-29T22:30:55.117Z,99121.13
2022-09-29T22:33:58.662Z,99121.47
2022-09-29T22:37:02.790Z,99131.69
2022-09-29T22:40:05.943Z,99128.34
2022-09-29T22:43:08.910Z,99135.72
2022-09-29T22:46:12.321Z,99134.72
2022-09-29T22:49:16.092Z,99138.22
2022-09-29T22:52:20.196Z,99140.06
2022-09-29T22:55:23.043Z,99136.94
2022-09-29T22:58:26.379Z,99142.56
2022-09-29T23:01:29.519Z,99132.91
2022-09-29T23:04:32.423Z,99140.22
2022-09-29T23:07:36.568Z,99138.06
2022-09-29T23:10:39.286Z,99139.59
2022-09-29T23:13:42.420Z,99132.91
2022-09-29T23:16:45.278Z,99132.59
2022-09-29T23:19:48.056Z,99130.75
2022-09-29T23:22:52.050Z,99135.06
2022-09-29T23:25:54.808Z,99139.09
2022-09-29T23:28:57.596Z,99139.25
2022-09-29T23:32:00.378Z,99136.59
2022-09-29T23:35:03.160Z,99136.91
2022-09-29T23:38:24.743Z,99142.09
2022-09-29T23:41:29.766Z,99143.75
2022-09-29T23:44:35.614Z,99152.31
2022-09-29T23:47:38.321Z,99148.28
2022-09-29T23:50:41.860Z,99143.09
2022-09-29T23:53:47.010Z,99141.28
2022-09-29T23:56:50.765Z,99145.28
2022-09-29T23:59:53.475Z,99149.47
